CBP4 weather

Sechelt (St. Mary's Hospital) Heliport
Sechelt, British Columbia, Canada

Public forecast

Using degrees Celsius for public forecast. Weather courtesy of forecast.io.

Closest aviation weather report (METAR) to Sechelt (St. Mary's Hospital) Heliport

Closest report is Nanaimo Airport, 25.7 nm (47.7 km) S. Retrieved 2020/04/09 00:00 UTC (38 minutes ago):

CYCD 090000Z 02006KT 30SM SCT230 15/02 A3027 RMK CI4 SLP252

Closest aviation forecast (TAF) to Sechelt (St. Mary's Hospital) Heliport

Closest forecast is Nanaimo Airport, 25.7 nm (47.7 km) S. Retrieved 2020-04-09 00:00 UTC (38 minutes ago):

TAF CYCD 082339Z 0900/0904 35006KT P6SM SCT250 BECMG 0901/0903 VRB03KT RMK NXT FCST WILL BE ISSUED AT 091445Z